Time;durP1;ratioP1;P1;durP2;ratioP2;P2;SDS_P1;SDS_P2;PMS_P1;PMS_P2;Temp;Humidity;BMP_temperature;BMP_pressure;BME280_temperature;BME280_humidity;BME280_pressure;Samples;Min_cycle;Max_cycle;Signal;HPM_P1;HPM_P2
2022/05/15 00:02:21;;;;;;;3.70;1.90;;;;;;;;;;5029243;28;20222;-76
2022/05/15 00:04:47;;;;;;;3.13;2.00;;;;;;;;;;5028431;28;20178;-76
2022/05/15 00:07:13;;;;;;;2.57;2.10;;;;;;;;;;5031975;28;20228;-76
2022/05/15 00:09:39;;;;;;;2.83;2.17;;;;;;;;;;5028721;28;20182;-76
2022/05/15 00:12:06;;;;;;;3.83;2.23;;;;;;;;;;5027329;28;20167;-77
2022/05/15 00:14:33;;;;;;;5.23;2.30;;;;;;;;;;5025890;28;20186;-77
2022/05/15 00:16:59;;;;;;;3.00;2.10;;;;;;;;;;5029652;28;20240;-76
2022/05/15 00:19:26;;;;;;;4.63;2.10;;;;;;;;;;5031121;28;20210;-76
2022/05/15 00:21:52;;;;;;;7.30;5.27;;;;;;;;;;5030873;28;20183;-76
2022/05/15 00:24:19;;;;;;;9.07;8.13;;;;;;;;;;5024531;28;20178;-76
2022/05/15 00:26:45;;;;;;;4.33;3.87;;;;;;;;;;5031617;28;20291;-76
2022/05/15 00:29:12;;;;;;;5.53;3.13;;;;;;;;;;5029942;28;20182;-76
2022/05/15 00:31:38;;;;;;;4.73;3.00;;;;;;;;;;5030212;28;20257;-76
2022/05/15 00:34:04;;;;;;;3.43;2.97;;;;;;;;;;5031764;28;20961;-76
2022/05/15 00:36:31;;;;;;;4.67;3.03;;;;;;;;;;5028396;28;20546;-76
2022/05/15 00:39:00;;;;;;;3.13;2.83;;;;;;;;;;5015575;28;20231;-76
2022/05/15 00:41:26;;;;;;;6.60;3.20;;;;;;;;;;5020310;28;20313;-76
2022/05/15 00:43:54;;;;;;;4.70;3.20;;;;;;;;;;5030448;28;20828;-76
2022/05/15 00:46:22;;;;;;;7.43;3.63;;;;;;;;;;5030155;28;20202;-76
2022/05/15 00:48:49;;;;;;;4.23;3.17;;;;;;;;;;5031236;28;20225;-76
2022/05/15 00:51:22;;;;;;;5.53;3.37;;;;;;;;;;5031406;28;20755;-76
2022/05/15 00:53:50;;;;;;;5.40;4.10;;;;;;;;;;5011328;28;20233;-76
2022/05/15 00:56:17;;;;;;;7.27;4.07;;;;;;;;;;5032016;28;20233;-76
2022/05/15 00:58:48;;;;;;;5.70;3.70;;;;;;;;;;5029361;28;20207;-76
2022/05/15 01:01:16;;;;;;;7.43;4.00;;;;;;;;;;5025600;28;20297;-76
2022/05/15 01:03:43;;;;;;;4.30;3.90;;;;;;;;;;5031479;28;20186;-76
2022/05/15 01:06:10;;;;;;;12.13;3.50;;;;;;;;;;5028460;28;20213;-76
2022/05/15 01:08:36;;;;;;;4.80;3.87;;;;;;;;;;5019501;28;20284;-76
2022/05/15 01:11:08;;;;;;;7.80;4.70;;;;;;;;;;5030049;28;20202;-76
2022/05/15 01:13:35;;;;;;;7.50;4.50;;;;;;;;;;5027110;28;20236;-76
2022/05/15 01:16:02;;;;;;;6.17;4.10;;;;;;;;;;5018293;28;20226;-76
2022/05/15 01:18:34;;;;;;;5.43;3.70;;;;;;;;;;5008486;28;20238;-76
2022/05/15 01:21:02;;;;;;;6.07;4.20;;;;;;;;;;5023076;28;20232;-76
2022/05/15 01:23:29;;;;;;;5.63;4.50;;;;;;;;;;5024752;28;20190;-76
2022/05/15 01:26:00;;;;;;;6.57;4.40;;;;;;;;;;5022501;28;20584;-76
2022/05/15 01:28:28;;;;;;;5.63;4.17;;;;;;;;;;5028513;28;20252;-76
2022/05/15 01:30:59;;;;;;;6.33;4.00;;;;;;;;;;5028298;28;20190;-77
2022/05/15 01:33:25;;;;;;;6.27;4.10;;;;;;;;;;5031157;28;20217;-76
2022/05/15 01:35:52;;;;;;;4.40;3.87;;;;;;;;;;5030078;28;20270;-76
2022/05/15 01:38:18;;;;;;;6.27;3.97;;;;;;;;;;5010586;28;20248;-76
2022/05/15 01:40:46;;;;;;;5.17;4.20;;;;;;;;;;5027935;28;20182;-76
2022/05/15 01:43:12;;;;;;;6.47;4.27;;;;;;;;;;5029929;28;20640;-77
2022/05/15 01:45:38;;;;;;;8.87;4.40;;;;;;;;;;5026365;28;20270;-76
2022/05/15 01:48:04;;;;;;;5.13;4.10;;;;;;;;;;5021271;28;20213;-76
2022/05/15 01:50:32;;;;;;;6.07;4.53;;;;;;;;;;5009454;28;20205;-76
2022/05/15 01:52:58;;;;;;;6.40;4.40;;;;;;;;;;5027381;28;20186;-76
2022/05/15 01:55:24;;;;;;;6.27;4.33;;;;;;;;;;5011596;28;20539;-76
2022/05/15 01:57:50;;;;;;;6.67;4.10;;;;;;;;;;5029380;28;20249;-76
2022/05/15 02:00:19;;;;;;;7.70;4.53;;;;;;;;;;5028880;28;20183;-76
2022/05/15 02:02:48;;;;;;;5.30;4.17;;;;;;;;;;5029537;28;20182;-76
2022/05/15 02:05:15;;;;;;;5.97;4.63;;;;;;;;;;5010358;28;20211;-76
2022/05/15 02:07:42;;;;;;;5.87;4.27;;;;;;;;;;5021247;28;20211;-76
2022/05/15 02:10:09;;;;;;;5.43;4.30;;;;;;;;;;5026185;28;20654;-76
2022/05/15 02:12:36;;;;;;;6.83;5.00;;;;;;;;;;5011426;28;20178;-76
2022/05/15 02:15:03;;;;;;;6.20;4.90;;;;;;;;;;5028861;28;20182;-76
2022/05/15 02:17:30;;;;;;;6.57;4.70;;;;;;;;;;5029598;28;20202;-76
2022/05/15 02:19:56;;;;;;;5.67;4.70;;;;;;;;;;5029081;28;20217;-76
2022/05/15 02:22:22;;;;;;;5.43;4.53;;;;;;;;;;5025874;28;20266;-76
2022/05/15 02:24:50;;;;;;;5.23;4.73;;;;;;;;;;5025868;28;20187;-76
2022/05/15 02:27:16;;;;;;;5.50;4.50;;;;;;;;;;5006722;28;20206;-76
2022/05/15 02:29:42;;;;;;;7.40;4.80;;;;;;;;;;5040448;28;20179;-76
2022/05/15 02:32:10;;;;;;;5.43;4.57;;;;;;;;;;5027046;28;20795;-76
2022/05/15 02:34:37;;;;;;;6.40;3.90;;;;;;;;;;5012931;28;20695;-76
2022/05/15 02:37:04;;;;;;;5.30;4.53;;;;;;;;;;5028069;28;20182;-76
2022/05/15 02:39:31;;;;;;;6.50;4.47;;;;;;;;;;5012544;28;20353;-76
2022/05/15 02:41:57;;;;;;;7.60;4.90;;;;;;;;;;5028723;28;20179;-75
2022/05/15 02:44:24;;;;;;;7.33;4.50;;;;;;;;;;5029472;28;20193;-76
2022/05/15 02:46:52;;;;;;;5.87;4.10;;;;;;;;;;5012358;28;20206;-76
2022/05/15 02:52:03;;;;;;;5.20;4.47;;;;;;;;;;5027069;28;20696;-76
2022/05/15 02:54:30;;;;;;;5.63;4.07;;;;;;;;;;5030347;28;20207;-76
2022/05/15 02:56:56;;;;;;;5.33;4.60;;;;;;;;;;5025975;28;20737;-76
2022/05/15 02:59:22;;;;;;;6.73;4.40;;;;;;;;;;5011844;28;20251;-76
2022/05/15 03:01:49;;;;;;;5.60;4.30;;;;;;;;;;5023682;28;20233;-76
2022/05/15 03:04:15;;;;;;;5.97;5.30;;;;;;;;;;5023755;28;20595;-76
2022/05/15 03:06:41;;;;;;;7.10;5.00;;;;;;;;;;5031211;28;20210;-77
2022/05/15 03:09:07;;;;;;;6.73;4.83;;;;;;;;;;5033430;28;20241;-77
2022/05/15 03:11:34;;;;;;;9.37;4.67;;;;;;;;;;5029232;28;20184;-76
2022/05/15 03:14:00;;;;;;;5.53;4.27;;;;;;;;;;5025684;28;20183;-76
2022/05/15 03:16:28;;;;;;;6.27;4.93;;;;;;;;;;5025694;28;20179;-76
2022/05/15 03:18:54;;;;;;;5.60;5.00;;;;;;;;;;5031387;28;20251;-76
2022/05/15 03:21:29;;;;;;;6.93;5.00;;;;;;;;;;5016046;28;20196;-76
2022/05/15 03:24:10;;;;;;;8.63;5.30;;;;;;;;;;5032540;28;20320;-76
2022/05/15 03:26:38;;;;;;;5.83;4.60;;;;;;;;;;5031091;28;20213;-76
2022/05/15 03:29:05;;;;;;;5.53;4.90;;;;;;;;;;5031726;28;20256;-77
2022/05/15 03:31:35;;;;;;;6.43;5.10;;;;;;;;;;5030907;28;20662;-76
2022/05/15 03:34:02;;;;;;;5.77;4.47;;;;;;;;;;5032276;28;20179;-76
2022/05/15 03:36:28;;;;;;;8.77;4.80;;;;;;;;;;5012596;28;20194;-76
2022/05/15 03:38:55;;;;;;;5.60;4.73;;;;;;;;;;5026404;28;20213;-76
2022/05/15 03:41:21;;;;;;;6.70;4.40;;;;;;;;;;5018328;28;20175;-76
2022/05/15 03:43:47;;;;;;;5.97;4.70;;;;;;;;;;5026202;28;20179;-76
2022/05/15 03:46:14;;;;;;;6.17;5.00;;;;;;;;;;5018080;28;20207;-76
2022/05/15 03:48:40;;;;;;;7.17;5.00;;;;;;;;;;5027983;28;20570;-76
2022/05/15 03:51:06;;;;;;;7.13;5.00;;;;;;;;;;5030161;28;20257;-76
2022/05/15 03:53:33;;;;;;;7.37;5.30;;;;;;;;;;5019877;28;20552;-76
2022/05/15 03:56:00;;;;;;;7.97;5.00;;;;;;;;;;5031708;28;20186;-76
2022/05/15 03:58:27;;;;;;;5.47;4.83;;;;;;;;;;5020247;28;20191;-77
2022/05/15 04:00:53;;;;;;;7.67;4.97;;;;;;;;;;5018382;28;20195;-76
2022/05/15 04:03:20;;;;;;;7.87;4.67;;;;;;;;;;5021552;28;20233;-76
2022/05/15 04:05:46;;;;;;;6.57;4.83;;;;;;;;;;5006384;28;20175;-77
2022/05/15 04:08:12;;;;;;;7.83;4.50;;;;;;;;;;5030110;28;20623;-76
2022/05/15 04:10:38;;;;;;;6.93;4.70;;;;;;;;;;5028645;28;20277;-76
2022/05/15 04:13:05;;;;;;;7.77;5.10;;;;;;;;;;5032106;28;20181;-76
2022/05/15 04:15:31;;;;;;;8.30;4.93;;;;;;;;;;5014859;28;20274;-77
2022/05/15 04:17:57;;;;;;;7.17;5.27;;;;;;;;;;5027659;28;20199;-76
2022/05/15 04:20:25;;;;;;;6.83;4.80;;;;;;;;;;5027511;28;20183;-76
2022/05/15 04:22:51;;;;;;;8.17;5.27;;;;;;;;;;5032576;28;20182;-76
2022/05/15 04:25:18;;;;;;;7.73;6.13;;;;;;;;;;5013330;28;20187;-76
2022/05/15 04:27:44;;;;;;;8.20;6.70;;;;;;;;;;5030654;28;20267;-76
2022/05/15 04:30:12;;;;;;;9.97;7.67;;;;;;;;;;5026889;28;20733;-76
2022/05/15 04:32:41;;;;;;;10.40;6.77;;;;;;;;;;5030651;28;20285;-76
2022/05/15 04:35:08;;;;;;;8.53;6.83;;;;;;;;;;5030866;28;20221;-76
2022/05/15 04:37:34;;;;;;;7.77;6.83;;;;;;;;;;5011881;28;20210;-76
2022/05/15 04:40:00;;;;;;;9.53;5.90;;;;;;;;;;5030702;28;20678;-76
2022/05/15 04:42:26;;;;;;;8.47;6.00;;;;;;;;;;5017826;28;20911;-76
2022/05/15 04:44:53;;;;;;;7.60;6.77;;;;;;;;;;5031960;28;20269;-77
2022/05/15 04:47:19;;;;;;;9.00;5.63;;;;;;;;;;5015298;28;20215;-76
2022/05/15 04:49:45;;;;;;;6.37;5.23;;;;;;;;;;5030910;28;20232;-76
2022/05/15 04:52:11;;;;;;;7.53;5.73;;;;;;;;;;5031406;28;20206;-77
2022/05/15 04:54:38;;;;;;;6.40;5.20;;;;;;;;;;5018908;28;20183;-76
2022/05/15 04:57:05;;;;;;;10.03;6.23;;;;;;;;;;5023995;28;20536;-76
2022/05/15 04:59:31;;;;;;;6.83;5.77;;;;;;;;;;5030148;28;20252;-76
2022/05/15 05:01:58;;;;;;;7.43;5.90;;;;;;;;;;5031564;28;20194;-76
2022/05/15 05:04:25;;;;;;;7.33;5.90;;;;;;;;;;5019409;28;20194;-76
2022/05/15 05:06:51;;;;;;;8.30;5.77;;;;;;;;;;5020154;28;20214;-75
2022/05/15 05:09:27;;;;;;;7.07;5.57;;;;;;;;;;5031984;28;20327;-76
2022/05/15 05:11:55;;;;;;;6.20;5.60;;;;;;;;;;5014478;28;20198;-78
2022/05/15 05:14:22;;;;;;;8.67;6.23;;;;;;;;;;5012274;28;20179;-77
2022/05/15 05:16:48;;;;;;;9.83;6.60;;;;;;;;;;5020692;28;20182;-77
2022/05/15 05:19:14;;;;;;;7.87;6.07;;;;;;;;;;5030018;28;20186;-77
2022/05/15 05:21:40;;;;;;;8.50;6.73;;;;;;;;;;5024538;28;20252;-77
2022/05/15 05:24:06;;;;;;;7.70;6.50;;;;;;;;;;5030787;28;20189;-77
2022/05/15 05:26:33;;;;;;;7.47;6.17;;;;;;;;;;5026383;28;20233;-77
2022/05/15 05:28:59;;;;;;;7.60;5.97;;;;;;;;;;5030034;28;20233;-77
2022/05/15 05:31:25;;;;;;;8.70;6.57;;;;;;;;;;5030817;28;20240;-77
2022/05/15 05:33:52;;;;;;;8.40;6.50;;;;;;;;;;5031479;28;20167;-78
2022/05/15 05:36:18;;;;;;;9.83;6.90;;;;;;;;;;5031615;28;20654;-77
2022/05/15 05:38:45;;;;;;;7.30;6.30;;;;;;;;;;5026831;28;20229;-77
2022/05/15 05:41:11;;;;;;;11.57;7.80;;;;;;;;;;5024399;28;20181;-77
2022/05/15 05:43:37;;;;;;;7.83;6.60;;;;;;;;;;5031182;28;20182;-77
2022/05/15 05:46:04;;;;;;;10.30;6.57;;;;;;;;;;5030560;28;20190;-77
2022/05/15 05:48:30;;;;;;;12.23;6.23;;;;;;;;;;5030386;28;20194;-77
2022/05/15 05:50:56;;;;;;;7.87;6.43;;;;;;;;;;5030426;28;20166;-77
2022/05/15 05:53:23;;;;;;;8.10;6.77;;;;;;;;;;5029380;28;20175;-78
2022/05/15 05:55:49;;;;;;;8.50;6.40;;;;;;;;;;5029843;28;20181;-77
2022/05/15 05:58:15;;;;;;;10.27;6.40;;;;;;;;;;5027863;28;20268;-77
2022/05/15 06:00:41;;;;;;;9.60;6.83;;;;;;;;;;5028552;28;20268;-77
2022/05/15 06:05:53;;;;;;;9.27;5.87;;;;;;;;;;5030607;28;20190;-77
2022/05/15 06:08:19;;;;;;;8.13;6.20;;;;;;;;;;5029241;28;20701;-77
2022/05/15 06:10:46;;;;;;;7.87;6.40;;;;;;;;;;5029167;28;20190;-77
2022/05/15 06:13:21;;;;;;;7.43;6.70;;;;;;;;;;5029341;28;20178;-77
2022/05/15 06:15:47;;;;;;;7.50;5.60;;;;;;;;;;5030555;28;20263;-77
2022/05/15 06:18:13;;;;;;;8.97;5.90;;;;;;;;;;5030589;28;20341;-77
2022/05/15 06:20:39;;;;;;;7.93;6.97;;;;;;;;;;5030046;28;20167;-77
2022/05/15 06:23:05;;;;;;;8.97;6.67;;;;;;;;;;5030163;28;20187;-77
2022/05/15 06:25:32;;;;;;;8.17;6.90;;;;;;;;;;5013059;28;20634;-77
2022/05/15 06:27:58;;;;;;;7.90;5.93;;;;;;;;;;5025717;28;20693;-77
2022/05/15 06:30:26;;;;;;;7.13;6.43;;;;;;;;;;5028408;28;20725;-77
2022/05/15 06:32:53;;;;;;;9.30;6.23;;;;;;;;;;5029725;28;20210;-77
2022/05/15 06:35:19;;;;;;;9.53;6.57;;;;;;;;;;5025550;28;20179;-77
2022/05/15 06:37:45;;;;;;;6.77;6.07;;;;;;;;;;5030164;28;20202;-77
2022/05/15 06:40:13;;;;;;;8.83;6.90;;;;;;;;;;5030314;28;20178;-77
2022/05/15 06:42:40;;;;;;;8.30;6.67;;;;;;;;;;5033872;28;20183;-77
2022/05/15 06:45:06;;;;;;;8.23;7.03;;;;;;;;;;5034550;28;20174;-77
2022/05/15 06:47:33;;;;;;;8.87;6.30;;;;;;;;;;5034339;28;20214;-77
2022/05/15 06:50:00;;;;;;;7.70;6.43;;;;;;;;;;5033286;28;20174;-77
2022/05/15 06:52:27;;;;;;;9.43;6.70;;;;;;;;;;5034132;28;20926;-77
2022/05/15 06:54:53;;;;;;;9.87;6.57;;;;;;;;;;5034158;28;21412;-77
2022/05/15 06:57:29;;;;;;;9.67;7.03;;;;;;;;;;5033974;28;20251;-77
2022/05/15 06:59:59;;;;;;;9.27;6.30;;;;;;;;;;5033493;28;20611;-77
2022/05/15 07:02:25;;;;;;;10.27;7.13;;;;;;;;;;5032988;28;20190;-77
2022/05/15 07:04:52;;;;;;;8.67;6.80;;;;;;;;;;5033743;28;20174;-77
2022/05/15 07:07:18;;;;;;;10.73;6.50;;;;;;;;;;5034054;28;20276;-77
2022/05/15 07:09:45;;;;;;;7.87;5.90;;;;;;;;;;5033024;28;20682;-77
2022/05/15 07:12:11;;;;;;;8.03;5.47;;;;;;;;;;5032474;28;20175;-77
2022/05/15 07:14:37;;;;;;;7.97;5.63;;;;;;;;;;5032456;28;20658;-77
2022/05/15 07:17:04;;;;;;;8.33;6.10;;;;;;;;;;5030615;28;20912;-77
2022/05/15 07:19:30;;;;;;;7.73;5.80;;;;;;;;;;5029233;28;20654;-77
2022/05/15 07:21:56;;;;;;;6.97;5.80;;;;;;;;;;5033197;28;20174;-77
2022/05/15 07:24:22;;;;;;;6.87;5.27;;;;;;;;;;5033526;28;20190;-77
2022/05/15 07:26:49;;;;;;;8.27;4.90;;;;;;;;;;5031257;28;20198;-77
2022/05/15 07:29:16;;;;;;;6.53;5.50;;;;;;;;;;5032378;28;20179;-77
2022/05/15 07:31:43;;;;;;;9.00;6.30;;;;;;;;;;5022917;28;20204;-77
2022/05/15 07:34:10;;;;;;;8.20;6.10;;;;;;;;;;5031085;28;20603;-77
2022/05/15 07:36:36;;;;;;;7.87;5.93;;;;;;;;;;5034643;28;20190;-78
2022/05/15 07:39:03;;;;;;;10.03;6.10;;;;;;;;;;5042157;28;20302;-78
2022/05/15 07:41:30;;;;;;;9.33;6.40;;;;;;;;;;5034469;28;20538;-78
2022/05/15 07:43:56;;;;;;;9.37;6.47;;;;;;;;;;5033461;28;20320;-77
2022/05/15 07:46:22;;;;;;;7.83;7.00;;;;;;;;;;5032856;28;20276;-77
2022/05/15 07:48:48;;;;;;;6.70;5.87;;;;;;;;;;5031431;28;20234;-77
2022/05/15 07:51:15;;;;;;;9.37;5.80;;;;;;;;;;5033567;28;20615;-77
2022/05/15 07:53:42;;;;;;;8.80;5.53;;;;;;;;;;5030477;28;20727;-77
2022/05/15 07:56:13;;;;;;;6.23;4.93;;;;;;;;;;5033329;28;20550;-77
2022/05/15 07:58:40;;;;;;;8.07;5.10;;;;;;;;;;5035479;28;20221;-77
2022/05/15 08:01:07;;;;;;;6.17;4.90;;;;;;;;;;5042359;28;20840;-77
2022/05/15 08:03:37;;;;;;;7.33;4.60;;;;;;;;;;5031285;28;20196;-78
2022/05/15 08:08:49;;;;;;;9.10;4.10;;;;;;;;;;5019355;28;20293;-78
2022/05/15 08:11:28;;;;;;;5.63;3.90;;;;;;;;;;5033255;28;20269;-78
2022/05/15 08:13:54;;;;;;;5.40;3.80;;;;;;;;;;5032126;28;20216;-78
2022/05/15 08:16:20;;;;;;;8.53;4.30;;;;;;;;;;5033248;28;20183;-78
2022/05/15 08:24:16;;;;;;;6.63;3.70;;;;;;;;;;5032710;28;20274;-78
2022/05/15 08:26:44;;;;;;;3.60;3.00;;;;;;;;;;5029361;28;20225;-78
2022/05/15 08:29:11;;;;;;;7.67;3.60;;;;;;;;;;5027705;28;20206;-78
2022/05/15 08:31:37;;;;;;;5.33;4.07;;;;;;;;;;5033309;28;20200;-79
2022/05/15 08:34:03;;;;;;;4.83;3.40;;;;;;;;;;5035692;28;20736;-78
2022/05/15 08:36:29;;;;;;;6.13;3.70;;;;;;;;;;5020179;28;20249;-78
2022/05/15 08:38:55;;;;;;;7.83;3.50;;;;;;;;;;5034229;28;20214;-79
2022/05/15 08:41:35;;;;;;;85.60;7.83;;;;;;;;;;5026797;28;20253;-79
2022/05/15 08:44:07;;;;;;;13.43;3.83;;;;;;;;;;5035529;28;20646;-79
2022/05/15 08:46:41;;;;;;;6.50;3.57;;;;;;;;;;5033835;28;20242;-79
2022/05/15 08:49:07;;;;;;;6.17;3.03;;;;;;;;;;5028851;28;20912;-79
2022/05/15 08:51:33;;;;;;;5.13;3.00;;;;;;;;;;5042176;28;20178;-79
2022/05/15 08:54:01;;;;;;;4.07;2.90;;;;;;;;;;5045713;28;20190;-79
2022/05/15 08:56:27;;;;;;;5.93;3.20;;;;;;;;;;5034974;28;20642;-79
2022/05/15 08:58:55;;;;;;;4.43;2.90;;;;;;;;;;5030086;28;20207;-79
2022/05/15 09:01:29;;;;;;;3.93;2.70;;;;;;;;;;5016649;28;20214;-79
2022/05/15 09:03:57;;;;;;;3.63;2.60;;;;;;;;;;5027557;28;20187;-79
2022/05/15 09:06:23;;;;;;;5.07;3.27;;;;;;;;;;5031626;28;20209;-79
2022/05/15 09:08:58;;;;;;;3.70;2.80;;;;;;;;;;5024424;28;20199;-79
2022/05/15 09:11:24;;;;;;;6.67;3.30;;;;;;;;;;5026377;28;20181;-79
2022/05/15 09:13:57;;;;;;;3.67;2.63;;;;;;;;;;5042572;28;20204;-79
2022/05/15 09:16:25;;;;;;;3.80;2.57;;;;;;;;;;5052226;28;20208;-79
2022/05/15 09:18:52;;;;;;;3.30;2.43;;;;;;;;;;5053191;28;20287;-79
2022/05/15 09:21:19;;;;;;;4.90;2.40;;;;;;;;;;5044563;28;20186;-79
2022/05/15 09:23:52;;;;;;;5.30;2.80;;;;;;;;;;5032840;28;20269;-79
2022/05/15 09:26:29;;;;;;;4.27;2.50;;;;;;;;;;5018652;28;20253;-77
2022/05/15 09:28:58;;;;;;;5.73;2.97;;;;;;;;;;5013432;28;20690;-79
2022/05/15 09:31:30;;;;;;;3.77;2.40;;;;;;;;;;5023892;28;20221;-80
2022/05/15 09:34:13;;;;;;;4.07;2.40;;;;;;;;;;5030227;28;20183;-80
2022/05/15 09:36:43;;;;;;;4.20;2.47;;;;;;;;;;5030472;28;20580;-79
2022/05/15 09:39:14;;;;;;;3.03;2.30;;;;;;;;;;5040518;28;20217;-80
2022/05/15 09:44:31;;;;;;;4.97;2.40;;;;;;;;;;5049188;28;20260;-79
2022/05/15 09:47:17;;;;;;;5.37;2.70;;;;;;;;;;5031821;28;20230;-78
2022/05/15 09:49:43;;;;;;;3.47;2.10;;;;;;;;;;5031153;28;20178;-79
2022/05/15 09:52:20;;;;;;;3.77;2.13;;;;;;;;;;5031592;28;20190;-80
2022/05/15 09:54:48;;;;;;;3.37;2.03;;;;;;;;;;5032069;28;20224;-80
2022/05/15 09:57:14;;;;;;;3.70;2.00;;;;;;;;;;5028060;28;20693;-80
2022/05/15 09:59:40;;;;;;;3.47;1.80;;;;;;;;;;5024160;28;20248;-80
2022/05/15 10:02:16;;;;;;;4.70;1.93;;;;;;;;;;5031435;28;20627;-79
2022/05/15 10:04:46;;;;;;;2.20;1.83;;;;;;;;;;5028202;28;20237;-79
2022/05/15 10:07:27;;;;;;;3.20;2.00;;;;;;;;;;5031384;28;20221;-80
2022/05/15 10:09:54;;;;;;;5.30;2.30;;;;;;;;;;5030938;28;20185;-79
2022/05/15 10:12:29;;;;;;;3.43;2.03;;;;;;;;;;5031287;28;20178;-79
2022/05/15 10:15:08;;;;;;;4.60;1.93;;;;;;;;;;5030974;28;20190;-79
2022/05/15 10:17:34;;;;;;;3.30;1.77;;;;;;;;;;5031458;28;20206;-80
2022/05/15 10:20:08;;;;;;;5.07;2.30;;;;;;;;;;5030806;28;20182;-80
2022/05/15 10:22:34;;;;;;;5.80;2.10;;;;;;;;;;5031324;28;20607;-79
2022/05/15 10:25:19;;;;;;;3.77;2.20;;;;;;;;;;5021858;28;20229;-80
2022/05/15 10:27:49;;;;;;;3.27;1.90;;;;;;;;;;5019253;28;20234;-79
2022/05/15 10:30:25;;;;;;;3.20;1.80;;;;;;;;;;5025642;28;20182;-77
2022/05/15 10:32:57;;;;;;;2.90;1.80;;;;;;;;;;5045472;28;20190;-79
2022/05/15 10:35:35;;;;;;;4.47;2.30;;;;;;;;;;5026616;28;20202;-78
2022/05/15 10:38:07;;;;;;;3.93;2.07;;;;;;;;;;5030816;28;20202;-77
2022/05/15 10:40:46;;;;;;;3.73;1.93;;;;;;;;;;5018439;28;20190;-79
2022/05/15 10:43:31;;;;;;;3.83;1.93;;;;;;;;;;5028928;28;20276;-79
2022/05/15 10:46:02;;;;;;;3.73;1.93;;;;;;;;;;5028022;28;20194;-77
2022/05/15 10:48:45;;;;;;;4.60;2.10;;;;;;;;;;5018537;28;20267;-78
2022/05/15 10:51:25;;;;;;;3.00;2.13;;;;;;;;;;5022864;28;20237;-78
2022/05/15 10:59:44;;;;;;;4.03;2.17;;;;;;;;;;5023342;28;20189;-78
2022/05/15 11:02:22;;;;;;;4.27;2.20;;;;;;;;;;5018640;28;20205;-78
2022/05/15 11:04:51;;;;;;;4.87;2.17;;;;;;;;;;5022096;28;20199;-78
2022/05/15 11:07:17;;;;;;;2.97;1.80;;;;;;;;;;5026315;28;20213;-78
2022/05/15 11:10:01;;;;;;;3.53;2.10;;;;;;;;;;5024353;28;20202;-78
2022/05/15 11:12:33;;;;;;;5.40;1.97;;;;;;;;;;5015884;28;20228;-79
2022/05/15 11:15:09;;;;;;;4.27;2.00;;;;;;;;;;5029325;28;20646;-78
2022/05/15 11:17:46;;;;;;;3.47;1.97;;;;;;;;;;5030142;28;20205;-78
2022/05/15 11:20:25;;;;;;;3.73;1.80;;;;;;;;;;5019004;28;20188;-78
2022/05/15 11:22:55;;;;;;;4.73;1.93;;;;;;;;;;5027597;28;20186;-78
2022/05/15 11:25:27;;;;;;;4.27;2.10;;;;;;;;;;5021360;28;20185;-78
2022/05/15 11:28:12;;;;;;;4.43;1.87;;;;;;;;;;5032084;28;20202;-78
2022/05/15 11:30:40;;;;;;;4.40;2.10;;;;;;;;;;5029257;28;20241;-77
2022/05/15 11:33:08;;;;;;;5.57;2.13;;;;;;;;;;5027912;28;20174;-78
2022/05/15 11:35:37;;;;;;;4.43;2.20;;;;;;;;;;5029743;28;20209;-78
2022/05/15 11:38:11;;;;;;;3.33;1.93;;;;;;;;;;5033530;28;20221;-78
2022/05/15 11:40:39;;;;;;;2.67;2.10;;;;;;;;;;5024898;28;20180;-78
2022/05/15 11:43:24;;;;;;;2.07;1.60;;;;;;;;;;5028359;28;20187;-78
2022/05/15 11:45:51;;;;;;;3.60;2.00;;;;;;;;;;5025593;28;20187;-78
2022/05/15 11:48:17;;;;;;;2.80;1.67;;;;;;;;;;5031545;28;20221;-78
2022/05/15 11:51:02;;;;;;;3.23;1.97;;;;;;;;;;5024561;28;20277;-78
2022/05/15 11:53:46;;;;;;;5.30;1.90;;;;;;;;;;5029512;28;20271;-78
2022/05/15 11:56:27;;;;;;;2.63;1.90;;;;;;;;;;5036739;28;20188;-78
2022/05/15 11:59:04;;;;;;;2.70;1.83;;;;;;;;;;5027427;28;20198;-78
2022/05/15 12:01:35;;;;;;;2.40;1.90;;;;;;;;;;5032744;28;20264;-78
2022/05/15 12:04:33;;;;;;;3.57;1.83;;;;;;;;;;5032501;28;20291;-78
2022/05/15 12:07:00;;;;;;;3.47;1.70;;;;;;;;;;5034842;28;20328;-78
2022/05/15 12:09:40;;;;;;;3.17;1.70;;;;;;;;;;5027004;28;20185;-79
2022/05/15 12:12:30;;;;;;;3.97;1.80;;;;;;;;;;5034890;28;20267;-78
2022/05/15 12:15:03;;;;;;;4.37;1.80;;;;;;;;;;5033033;28;20210;-79
2022/05/15 12:17:30;;;;;;;4.20;1.70;;;;;;;;;;5029840;28;20208;-78
2022/05/15 12:20:08;;;;;;;3.47;2.03;;;;;;;;;;5036468;28;20206;-78
2022/05/15 12:22:39;;;;;;;3.40;2.00;;;;;;;;;;5036318;28;20227;-78
2022/05/15 12:25:09;;;;;;;2.30;1.80;;;;;;;;;;5034007;28;20193;-78
2022/05/15 12:27:41;;;;;;;2.63;1.77;;;;;;;;;;5029915;28;20212;-78
2022/05/15 12:30:12;;;;;;;4.50;2.00;;;;;;;;;;5025323;28;20209;-78
2022/05/15 12:32:44;;;;;;;3.20;1.80;;;;;;;;;;5033136;28;20666;-78
2022/05/15 12:35:16;;;;;;;3.60;2.00;;;;;;;;;;5028682;28;20206;-78
2022/05/15 12:38:05;;;;;;;2.97;1.80;;;;;;;;;;5030830;28;20223;-78
2022/05/15 12:40:33;;;;;;;2.70;1.90;;;;;;;;;;5029525;28;20207;-78
2022/05/15 12:43:00;;;;;;;3.77;1.80;;;;;;;;;;5029338;28;20662;-78
2022/05/15 12:45:26;;;;;;;3.00;1.77;;;;;;;;;;5029389;28;20183;-78
2022/05/15 12:48:19;;;;;;;4.90;2.13;;;;;;;;;;5037034;28;20598;-78
2022/05/15 12:50:53;;;;;;;4.00;1.80;;;;;;;;;;5037110;28;20642;-78
2022/05/15 12:53:29;;;;;;;2.43;2.00;;;;;;;;;;5037038;28;20180;-78
2022/05/15 12:56:10;;;;;;;2.40;1.87;;;;;;;;;;5028718;28;20265;-78
2022/05/15 12:58:36;;;;;;;3.87;1.80;;;;;;;;;;5033918;28;20240;-78
2022/05/15 13:01:04;;;;;;;2.57;1.80;;;;;;;;;;5030024;28;21622;-78
2022/05/15 13:03:30;;;;;;;3.17;1.97;;;;;;;;;;5029824;28;20190;-78
2022/05/15 13:05:58;;;;;;;3.83;1.90;;;;;;;;;;5036277;28;20174;-78
2022/05/15 13:08:25;;;;;;;2.40;1.63;;;;;;;;;;5040301;28;20244;-78
2022/05/15 13:10:56;;;;;;;2.77;1.70;;;;;;;;;;5032830;28;20898;-78
2022/05/15 13:13:24;;;;;;;3.57;1.60;;;;;;;;;;5031148;28;20326;-78
2022/05/15 13:15:52;;;;;;;1.67;1.33;;;;;;;;;;5031285;28;20215;-78
2022/05/15 13:18:19;;;;;;;2.53;1.53;;;;;;;;;;5049210;28;20245;-78
2022/05/15 13:20:49;;;;;;;2.77;1.60;;;;;;;;;;5033410;28;20184;-78
2022/05/15 13:23:15;;;;;;;1.60;1.50;;;;;;;;;;5034329;28;20232;-78
2022/05/15 13:25:47;;;;;;;2.67;1.50;;;;;;;;;;5029622;28;20272;-78
2022/05/15 13:28:13;;;;;;;1.73;1.40;;;;;;;;;;5036567;28;20286;-78
2022/05/15 13:30:40;;;;;;;2.30;1.37;;;;;;;;;;5029715;28;20781;-79
2022/05/15 13:33:11;;;;;;;3.10;1.50;;;;;;;;;;5031087;28;20174;-79
2022/05/15 13:35:39;;;;;;;2.23;1.67;;;;;;;;;;5031274;28;20205;-79
2022/05/15 13:38:21;;;;;;;2.80;1.42;;;;;;;;;;5031193;28;20574;-79
2022/05/15 13:43:34;;;;;;;3.13;1.40;;;;;;;;;;5023505;28;20222;-81
2022/05/15 13:46:05;;;;;;;2.00;1.40;;;;;;;;;;5025790;28;20190;-79
2022/05/15 13:48:51;;;;;;;2.00;1.40;;;;;;;;;;5028067;28;20858;-79
2022/05/15 13:51:29;;;;;;;1.98;1.38;;;;;;;;;;5025243;28;20232;-79
2022/05/15 13:54:17;;;;;;;2.85;1.50;;;;;;;;;;5028270;28;20183;-79
2022/05/15 13:57:03;;;;;;;2.28;1.30;;;;;;;;;;5027756;28;20206;-79
2022/05/15 13:59:35;;;;;;;1.40;1.10;;;;;;;;;;5028717;28;20272;-79
2022/05/15 14:02:04;;;;;;;2.70;1.38;;;;;;;;;;5027381;28;20198;-79
2022/05/15 14:04:31;;;;;;;2.78;1.52;;;;;;;;;;5030397;28;20191;-79
2022/05/15 14:06:57;;;;;;;2.45;1.30;;;;;;;;;;5028928;28;20203;-79
2022/05/15 14:09:41;;;;;;;1.83;1.50;;;;;;;;;;5028202;28;20172;-79
2022/05/15 14:12:09;;;;;;;2.17;1.33;;;;;;;;;;5025592;28;20269;-79
2022/05/15 14:14:56;;;;;;;3.47;1.60;;;;;;;;;;5029631;28;20262;-78
2022/05/15 14:17:22;;;;;;;2.78;1.30;;;;;;;;;;5028009;28;20212;-77
2022/05/15 14:19:48;;;;;;;2.47;1.45;;;;;;;;;;5027448;28;20220;-77
2022/05/15 14:22:14;;;;;;;2.47;1.50;;;;;;;;;;5029771;28;20206;-77
2022/05/15 14:24:40;;;;;;;1.60;1.30;;;;;;;;;;5027570;28;20170;-77
2022/05/15 14:27:07;;;;;;;3.15;1.58;;;;;;;;;;5026538;28;20614;-77
2022/05/15 14:29:33;;;;;;;2.47;1.50;;;;;;;;;;5027776;28;20213;-77
2022/05/15 14:32:03;;;;;;;2.30;1.58;;;;;;;;;;5027676;28;20233;-78
2022/05/15 14:34:29;;;;;;;1.65;1.52;;;;;;;;;;5026822;28;20233;-79
2022/05/15 14:36:55;;;;;;;3.45;1.67;;;;;;;;;;5027209;28;20191;-78
2022/05/15 14:39:22;;;;;;;2.00;1.50;;;;;;;;;;5025406;28;20183;-79
2022/05/15 14:41:48;;;;;;;4.28;1.60;;;;;;;;;;5026587;28;20191;-77
2022/05/15 14:44:14;;;;;;;3.97;1.60;;;;;;;;;;5026603;28;20183;-78
2022/05/15 14:46:42;;;;;;;3.75;1.80;;;;;;;;;;5022393;28;20207;-78
2022/05/15 14:49:10;;;;;;;7.75;1.98;;;;;;;;;;5025200;28;20211;-77
2022/05/15 14:51:39;;;;;;;2.17;1.58;;;;;;;;;;5029962;28;20182;-77
2022/05/15 14:54:05;;;;;;;2.03;1.77;;;;;;;;;;5026370;28;20514;-77
2022/05/15 14:56:34;;;;;;;3.95;1.80;;;;;;;;;;5025538;28;20190;-77
2022/05/15 14:59:06;;;;;;;3.67;1.75;;;;;;;;;;5025077;28;20422;-77
2022/05/15 15:01:33;;;;;;;2.10;1.50;;;;;;;;;;5030081;28;20210;-77
2022/05/15 15:03:59;;;;;;;3.90;1.63;;;;;;;;;;5026571;28;20195;-77
2022/05/15 15:06:26;;;;;;;2.97;1.45;;;;;;;;;;5026470;28;20556;-77
2022/05/15 15:08:52;;;;;;;5.13;1.65;;;;;;;;;;5026715;28;20202;-77
2022/05/15 15:11:21;;;;;;;3.72;1.88;;;;;;;;;;5027310;28;20661;-77
2022/05/15 15:13:49;;;;;;;2.63;1.80;;;;;;;;;;5031260;28;20175;-76
2022/05/15 15:16:17;;;;;;;2.57;1.80;;;;;;;;;;5030593;28;20206;-78
2022/05/15 15:18:43;;;;;;;2.20;1.53;;;;;;;;;;5031816;28;20273;-78
2022/05/15 15:21:10;;;;;;;2.60;1.70;;;;;;;;;;5029243;28;20204;-82